createdAt,value
2019-05-04T00:01:09.297Z,91.28
2019-05-04T00:03:40.974Z,91.52
2019-05-04T00:06:11.704Z,91.57
2019-05-04T00:08:44.605Z,91.57
2019-05-04T00:11:16.409Z,91.45
2019-05-04T00:13:48.423Z,91.41
2019-05-04T00:16:19.119Z,91.43
2019-05-04T00:18:49.879Z,91.58
2019-05-04T00:21:21.865Z,91.96
2019-05-04T00:23:55.187Z,92.28
2019-05-04T00:26:27.348Z,92.06
2019-05-04T00:28:58.179Z,92.02
2019-05-04T00:31:30.052Z,91.75
2019-05-04T00:34:15.872Z,91.95
2019-05-04T00:37:01.044Z,91.83
2019-05-04T00:39:36.443Z,91.62
2019-05-04T00:42:07.536Z,91.48
2019-05-04T00:44:39.334Z,92.29
2019-05-04T00:47:10.114Z,92.56
2019-05-04T00:49:44.757Z,92.17
2019-05-04T00:52:15.794Z,92.14
2019-05-04T00:54:47.689Z,92.05
2019-05-04T00:57:19.621Z,91.82
2019-05-04T00:59:50.422Z,92.08
2019-05-04T01:02:35.979Z,92.76
2019-05-04T01:05:14.791Z,92.88
2019-05-04T01:07:45.183Z,92.65
2019-05-04T01:10:17.368Z,92.54
2019-05-04T01:12:49.439Z,92.73
2019-05-04T01:15:22.960Z,92.57
2019-05-04T01:17:54.570Z,92.18
2019-05-04T01:20:25.790Z,92.20
2019-05-04T01:22:57.691Z,92.90
2019-05-04T01:25:31.335Z,93.05
2019-05-04T01:28:04.772Z,93.06
2019-05-04T01:30:36.960Z,92.92
2019-05-04T01:33:08.803Z,92.75
2019-05-04T01:36:02.184Z,92.68
2019-05-04T01:38:52.912Z,92.79
2019-05-04T01:41:37.159Z,93.21
2019-05-04T01:44:09.576Z,92.96
2019-05-04T01:46:41.540Z,92.78
2019-05-04T01:49:15.377Z,92.94
2019-05-04T01:51:50.437Z,92.78
2019-05-04T01:54:22.270Z,92.86
2019-05-04T01:57:05.305Z,92.63
2019-05-04T01:59:45.595Z,92.44
2019-05-04T02:02:17.532Z,92.14
2019-05-04T02:04:51.405Z,92.65
2019-05-04T02:07:25.410Z,92.55
2019-05-04T02:09:56.214Z,92.48
2019-05-04T02:12:26.982Z,92.16
2019-05-04T02:14:58.855Z,92.10
2019-05-04T02:17:29.692Z,92.43
2019-05-04T02:20:01.636Z,92.04
2019-05-04T02:22:37.632Z,91.95
2019-05-04T02:25:22.847Z,92.17
2019-05-04T02:28:21.319Z,91.86
2019-05-04T02:30:56.826Z,92.45
2019-05-04T02:33:30.214Z,92.61
2019-05-04T02:36:02.134Z,92.79
2019-05-04T02:38:36.073Z,92.79
2019-05-04T02:41:41.147Z,92.71
2019-05-04T02:44:12.109Z,92.90
2019-05-04T02:46:46.197Z,92.69
2019-05-04T02:49:35.728Z,92.53
2019-05-04T02:52:07.022Z,92.39
2019-05-04T02:54:38.015Z,92.74
2019-05-04T02:57:11.565Z,92.96
2019-05-04T02:59:45.940Z,92.48
2019-05-04T03:02:17.867Z,92.70
2019-05-04T03:04:56.439Z,92.69
2019-05-04T03:07:27.208Z,92.83
2019-05-04T03:09:59.169Z,92.91
2019-05-04T03:12:31.138Z,92.83
2019-05-04T03:15:02.724Z,92.93
2019-05-04T03:17:42.392Z,93.04
2019-05-04T03:20:20.082Z,93.17
2019-05-04T03:22:56.036Z,93.32
2019-05-04T03:25:26.864Z,93.33
2019-05-04T03:27:57.628Z,93.23
2019-05-04T03:30:38.516Z,93.24
2019-05-04T03:33:18.879Z,93.31
2019-05-04T03:36:00.170Z,93.43
2019-05-04T03:38:22.697Z,93.83
2019-05-04T03:40:55.266Z,94.03
2019-05-04T03:43:31.086Z,93.96
2019-05-04T03:46:20.797Z,94.01
2019-05-04T03:49:05.278Z,93.76
2019-05-04T03:51:36.245Z,93.63
2019-05-04T03:54:15.429Z,93.81
2019-05-04T03:56:46.551Z,94.31
2019-05-04T03:59:25.385Z,94.26
2019-05-04T04:01:56.194Z,94.21
2019-05-04T04:04:26.986Z,94.00
2019-05-04T04:06:58.939Z,93.97
2019-05-04T04:09:30.906Z,93.14
2019-05-04T04:12:05.312Z,92.07
2019-05-04T04:14:36.196Z,92.54
2019-05-04T04:17:47.143Z,92.33
2019-05-04T04:20:18.118Z,91.83
2019-05-04T04:22:50.783Z,92.05
2019-05-04T04:25:37.010Z,92.41
2019-05-04T04:28:21.827Z,92.11
2019-05-04T04:30:46.476Z,91.29
2019-05-04T04:33:18.395Z,90.63
2019-05-04T04:35:50.426Z,91.25
2019-05-04T04:38:22.308Z,92.24
2019-05-04T04:40:55.562Z,92.93
2019-05-04T04:43:25.792Z,94.22
2019-05-04T04:45:57.803Z,90.02
2019-05-04T04:48:30.374Z,90.63
2019-05-04T04:51:01.333Z,93.04
2019-05-04T04:53:32.088Z,91.17
2019-05-04T04:56:06.894Z,92.11
2019-05-04T04:58:41.605Z,89.85
2019-05-04T05:01:19.437Z,92.18
2019-05-04T05:03:51.286Z,93.09
2019-05-04T05:06:21.913Z,92.41
2019-05-04T05:08:55.302Z,91.65
2019-05-04T05:11:25.674Z,92.86
2019-05-04T05:13:58.707Z,93.11
2019-05-04T05:16:29.311Z,94.75
2019-05-04T05:18:59.886Z,93.96
2019-05-04T05:21:30.524Z,94.09
2019-05-04T05:24:01.039Z,92.81
2019-05-04T05:26:31.672Z,93.56
2019-05-04T05:29:02.228Z,95.70
2019-05-04T05:31:47.743Z,94.59
2019-05-04T05:34:40.953Z,93.17
2019-05-04T05:37:11.574Z,92.81
2019-05-04T05:39:54.810Z,94.89
2019-05-04T05:42:15.161Z,93.93
2019-05-04T05:44:46.843Z,95.57
2019-05-04T05:47:34.277Z,94.01
2019-05-04T05:50:29.123Z,94.52
2019-05-04T05:53:19.005Z,95.47
2019-05-04T05:56:17.391Z,97.13
2019-05-04T05:59:15.395Z,96.67
2019-05-04T06:01:55.541Z,95.57
2019-05-04T06:04:38.306Z,95.61
2019-05-04T06:07:14.890Z,95.97
2019-05-04T06:09:45.518Z,96.19
2019-05-04T06:12:20.331Z,95.16
2019-05-04T06:15:14.960Z,94.48
2019-05-04T06:17:50.209Z,93.65
2019-05-04T06:20:44.307Z,92.87
2019-05-04T06:23:29.417Z,92.97
2019-05-04T06:26:07.869Z,94.50
2019-05-04T06:29:07.187Z,92.04
2019-05-04T06:31:51.706Z,93.21
2019-05-04T06:34:31.385Z,93.69
2019-05-04T06:37:15.253Z,94.23
2019-05-04T06:39:55.100Z,94.35
2019-05-04T06:42:41.956Z,94.39
2019-05-04T06:45:30.447Z,95.25
2019-05-04T06:48:02.175Z,95.11
2019-05-04T06:50:35.213Z,94.87
2019-05-04T06:53:33.008Z,94.79
2019-05-04T06:56:01.978Z,96.02
2019-05-04T06:58:41.735Z,95.32
2019-05-04T07:01:16.965Z,95.29
2019-05-04T07:03:49.374Z,93.86
2019-05-04T07:06:19.192Z,92.89
2019-05-04T07:08:49.805Z,93.48
2019-05-04T07:11:28.961Z,95.59
2019-05-04T07:13:55.749Z,94.88
2019-05-04T07:16:29.412Z,94.53
2019-05-04T07:18:57.489Z,95.32
2019-05-04T07:21:29.331Z,96.00
2019-05-04T07:23:59.908Z,96.01
2019-05-04T07:26:35.522Z,96.00
2019-05-04T07:29:04.611Z,94.96
2019-05-04T07:31:40.125Z,95.49
2019-05-04T07:34:10.736Z,95.23
2019-05-04T07:36:59.953Z,96.33
2019-05-04T07:40:06.349Z,96.33
2019-05-04T07:42:51.454Z,93.79
2019-05-04T07:45:20.184Z,96.17
2019-05-04T07:47:52.752Z,95.92
2019-05-04T07:50:24.946Z,95.55
2019-05-04T07:52:59.883Z,94.92
2019-05-04T07:55:28.365Z,94.47
2019-05-04T07:57:59.659Z,95.78
2019-05-04T08:00:31.260Z,92.86
2019-05-04T08:03:01.819Z,93.20
2019-05-04T08:05:43.131Z,95.13
2019-05-04T08:08:05.669Z,95.22
2019-05-04T08:10:37.908Z,95.85
2019-05-04T08:13:08.543Z,97.74
2019-05-04T08:15:39.393Z,98.20
2019-05-04T08:18:11.262Z,95.56
2019-05-04T08:20:44.396Z,95.71
2019-05-04T08:23:14.935Z,95.59
2019-05-04T08:25:49.952Z,97.50
2019-05-04T08:28:18.754Z,96.33
2019-05-04T08:30:50.625Z,96.85
2019-05-04T08:33:27.657Z,97.45
2019-05-04T08:35:54.422Z,96.49
2019-05-04T08:38:25.168Z,95.64
2019-05-04T08:40:55.820Z,95.17
2019-05-04T08:43:26.428Z,94.99
2019-05-04T08:46:05.042Z,96.01
2019-05-04T08:48:42.091Z,97.19
2019-05-04T08:51:15.505Z,96.95
2019-05-04T08:53:50.313Z,96.51
2019-05-04T08:56:31.246Z,97.28
2019-05-04T08:59:11.151Z,98.32
2019-05-04T09:02:07.563Z,98.14
2019-05-04T09:04:45.554Z,97.54
2019-05-04T09:07:21.498Z,95.20
2019-05-04T09:09:40.409Z,96.32
2019-05-04T09:12:19.967Z,96.66
2019-05-04T09:14:44.748Z,97.08
2019-05-04T09:17:19.664Z,94.85
2019-05-04T09:19:53.665Z,94.97
2019-05-04T09:22:25.308Z,95.84
2019-05-04T09:24:54.722Z,96.45
2019-05-04T09:27:29.589Z,96.00
2019-05-04T09:29:58.069Z,95.55
2019-05-04T09:32:33.260Z,95.11
2019-05-04T09:35:05.960Z,94.57
2019-05-04T09:37:34.586Z,94.11
2019-05-04T09:40:08.832Z,92.00
2019-05-04T09:42:55.412Z,91.66
2019-05-04T09:45:28.524Z,94.08
2019-05-04T09:48:06.592Z,95.09
2019-05-04T09:50:31.398Z,91.90
2019-05-04T09:53:17.132Z,90.15
2019-05-04T09:55:40.665Z,91.47
2019-05-04T09:58:24.622Z,93.93
2019-05-04T10:00:55.266Z,90.84
2019-05-04T10:03:26.416Z,89.35
2019-05-04T10:05:57.819Z,88.94
2019-05-04T10:08:28.476Z,89.00
2019-05-04T10:11:14.963Z,89.51
2019-05-04T10:13:52.380Z,89.65
2019-05-04T10:16:40.867Z,89.47
2019-05-04T10:19:11.482Z,89.16
2019-05-04T10:21:42.119Z,89.12
2019-05-04T10:24:12.685Z,90.83
2019-05-04T10:26:58.720Z,90.05
2019-05-04T10:29:29.379Z,89.67
2019-05-04T10:31:59.971Z,89.32
2019-05-04T10:34:30.586Z,88.95
2019-05-04T10:37:01.147Z,88.31
2019-05-04T10:39:31.753Z,88.63
2019-05-04T10:42:02.264Z,89.54
2019-05-04T10:44:34.804Z,88.93
2019-05-04T10:47:05.377Z,88.24
2019-05-04T10:49:35.982Z,88.29
2019-05-04T10:52:06.541Z,87.57
2019-05-04T10:54:37.143Z,88.46
2019-05-04T10:57:07.737Z,89.95
2019-05-04T10:59:38.335Z,88.69
2019-05-04T11:02:08.918Z,87.76
2019-05-04T11:04:39.480Z,86.98
2019-05-04T11:07:10.528Z,88.56
2019-05-04T11:09:44.414Z,88.62
2019-05-04T11:12:15.494Z,87.79
2019-05-04T11:14:46.543Z,90.37
2019-05-04T11:17:17.070Z,89.87
2019-05-04T11:19:50.761Z,89.04
2019-05-04T11:22:21.405Z,87.35
2019-05-04T11:25:29.467Z,88.06
2019-05-04T11:28:08.317Z,88.09
2019-05-04T11:30:38.906Z,87.02
2019-05-04T11:33:09.449Z,84.85
2019-05-04T11:35:42.082Z,82.37
2019-05-04T11:38:14.532Z,83.76
2019-05-04T11:40:45.391Z,83.67
2019-05-04T11:43:28.939Z,83.12
2019-05-04T11:45:49.773Z,83.64
2019-05-04T11:48:24.609Z,84.64
2019-05-04T11:50:55.311Z,84.92
2019-05-04T11:53:25.902Z,84.18
2019-05-04T11:55:56.523Z,84.02
2019-05-04T11:58:27.125Z,82.77
2019-05-04T12:00:58.736Z,83.43
2019-05-04T12:03:29.280Z,82.94
2019-05-04T12:06:05.097Z,82.82
2019-05-04T12:09:06.627Z,80.79
2019-05-04T12:11:37.205Z,80.09
2019-05-04T12:14:07.845Z,79.26
2019-05-04T12:16:38.456Z,79.46
2019-05-04T12:19:09.107Z,80.67
2019-05-04T12:21:39.705Z,78.69
2019-05-04T12:24:14.225Z,76.90
2019-05-04T12:26:44.664Z,75.43
2019-05-04T12:29:16.278Z,76.74
2019-05-04T12:31:46.887Z,76.65
2019-05-04T12:34:18.955Z,78.51
2019-05-04T12:36:49.535Z,76.75
2019-05-04T12:39:20.165Z,77.79
2019-05-04T12:41:50.759Z,77.83
2019-05-04T12:44:21.439Z,76.97
2019-05-04T12:46:51.985Z,75.64
2019-05-04T12:49:22.623Z,73.51
2019-05-04T12:51:54.471Z,76.85
2019-05-04T12:54:25.484Z,72.44
2019-05-04T12:56:56.060Z,76.15
2019-05-04T12:59:26.698Z,74.05
2019-05-04T13:01:57.435Z,73.31
2019-05-04T13:04:28.041Z,72.40
2019-05-04T13:06:58.641Z,70.53
2019-05-04T13:09:29.289Z,69.96
2019-05-04T13:11:59.928Z,70.12
2019-05-04T13:14:30.554Z,70.50
2019-05-04T13:17:05.984Z,72.78
2019-05-04T13:19:36.649Z,75.86
2019-05-04T13:22:07.189Z,72.99
2019-05-04T13:24:37.775Z,71.85
2019-05-04T13:27:08.345Z,70.99
2019-05-04T13:29:38.956Z,69.95
2019-05-04T13:32:09.557Z,71.72
2019-05-04T13:34:40.227Z,73.27
2019-05-04T13:37:10.761Z,69.34
2019-05-04T13:39:41.400Z,67.96
2019-05-04T13:42:11.950Z,67.54
2019-05-04T13:44:42.543Z,68.07
2019-05-04T13:47:13.170Z,69.30
2019-05-04T13:49:44.999Z,71.49
2019-05-04T13:52:15.646Z,70.50
2019-05-04T13:55:14.374Z,68.97
2019-05-04T13:57:47.478Z,71.70
2019-05-04T14:00:46.340Z,71.28
2019-05-04T14:03:26.035Z,73.92
2019-05-04T14:05:56.946Z,78.48
2019-05-04T14:08:29.553Z,78.72
2019-05-04T14:11:13.896Z,78.63
2019-05-04T14:13:34.698Z,76.06
2019-05-04T14:16:05.563Z,78.15
2019-05-04T14:18:36.407Z,75.77
2019-05-04T14:21:10.304Z,75.47
2019-05-04T14:23:41.178Z,75.79
2019-05-04T14:26:13.294Z,74.50
2019-05-04T14:28:45.461Z,73.29
2019-05-04T14:31:16.356Z,74.70
2019-05-04T14:33:47.000Z,76.04
2019-05-04T14:36:17.769Z,76.93
2019-05-04T14:38:56.515Z,76.70
2019-05-04T14:41:26.988Z,78.48
2019-05-04T14:44:04.369Z,78.11
2019-05-04T14:46:52.515Z,79.24
2019-05-04T14:49:24.924Z,79.39
2019-05-04T14:51:57.058Z,80.56
2019-05-04T14:54:28.858Z,80.82
2019-05-04T14:57:01.673Z,81.59
2019-05-04T14:59:34.271Z,80.27
2019-05-04T15:02:06.899Z,82.11
2019-05-04T15:04:37.604Z,83.19
2019-05-04T15:07:08.506Z,81.21
2019-05-04T15:09:39.437Z,82.08
2019-05-04T15:12:10.257Z,78.86
2019-05-04T15:14:42.232Z,79.04
2019-05-04T15:17:14.644Z,79.89
2019-05-04T15:20:06.115Z,78.91
2019-05-04T15:22:41.604Z,78.71
2019-05-04T15:25:15.248Z,77.92
2019-05-04T15:27:46.319Z,74.53
2019-05-04T15:30:18.473Z,74.75
2019-05-04T15:32:50.119Z,73.93
2019-05-04T15:35:22.067Z,74.61
2019-05-04T15:37:52.788Z,73.35
2019-05-04T15:40:24.743Z,72.96
2019-05-04T15:42:57.539Z,73.80
2019-05-04T15:45:30.872Z,73.30
2019-05-04T15:48:06.776Z,71.92
2019-05-04T15:51:01.771Z,71.41
2019-05-04T15:53:40.184Z,70.21
2019-05-04T15:56:37.013Z,70.56
2019-05-04T15:59:14.506Z,71.83
2019-05-04T16:01:45.265Z,72.08
2019-05-04T16:04:15.997Z,70.45
2019-05-04T16:06:51.993Z,70.77
2019-05-04T16:09:25.140Z,71.23
2019-05-04T16:11:57.974Z,68.55
2019-05-04T16:14:30.832Z,70.64
2019-05-04T16:17:01.515Z,71.40
2019-05-04T16:19:32.269Z,69.97
2019-05-04T16:22:07.340Z,70.01
2019-05-04T16:24:37.060Z,70.47
2019-05-04T16:27:11.424Z,70.71
2019-05-04T16:29:42.239Z,70.58
2019-05-04T16:32:21.035Z,70.56
2019-05-04T16:34:54.941Z,70.16
2019-05-04T16:37:28.218Z,70.67
2019-05-04T16:39:59.078Z,70.29
2019-05-04T16:42:30.978Z,70.57
2019-05-04T16:45:04.542Z,71.61
2019-05-04T16:47:36.578Z,70.23
2019-05-04T16:50:44.629Z,71.27
2019-05-04T16:53:24.202Z,70.82
2019-05-04T16:55:57.087Z,71.88
2019-05-04T16:58:29.418Z,73.67
2019-05-04T17:01:19.446Z,75.11
2019-05-04T17:03:54.385Z,74.47
2019-05-04T17:06:25.388Z,74.57
2019-05-04T17:08:56.632Z,75.70
2019-05-04T17:11:46.566Z,74.68
2019-05-04T17:14:17.303Z,75.15
2019-05-04T17:16:49.296Z,75.30
2019-05-04T17:19:21.246Z,75.06
2019-05-04T17:22:08.761Z,74.23
2019-05-04T17:25:10.333Z,73.38
2019-05-04T17:28:01.425Z,74.52
2019-05-04T17:30:37.873Z,73.15
2019-05-04T17:33:11.099Z,74.68
2019-05-04T17:35:42.294Z,75.22
2019-05-04T17:38:15.282Z,75.19
2019-05-04T17:41:00.130Z,76.16
2019-05-04T17:43:42.601Z,75.70
2019-05-04T17:46:22.835Z,74.83
2019-05-04T17:48:51.109Z,74.50
2019-05-04T17:51:23.102Z,75.69
2019-05-04T17:53:55.174Z,76.87
2019-05-04T17:56:27.095Z,77.38
2019-05-04T17:58:57.835Z,79.00
2019-05-04T18:02:05.735Z,77.52
2019-05-04T18:04:44.877Z,77.49
2019-05-04T18:07:17.713Z,79.03
2019-05-04T18:09:48.640Z,80.43
2019-05-04T18:12:39.529Z,80.80
2019-05-04T18:15:31.845Z,79.38
2019-05-04T18:18:12.520Z,80.34
2019-05-04T18:20:44.535Z,81.20
2019-05-04T18:23:15.605Z,80.99
2019-05-04T18:25:51.009Z,80.68
2019-05-04T18:28:21.960Z,80.67
2019-05-04T18:30:53.903Z,79.49
2019-05-04T18:33:25.098Z,77.83
2019-05-04T18:35:56.961Z,78.51
2019-05-04T18:38:27.794Z,80.00
2019-05-04T18:40:58.428Z,80.46
2019-05-04T18:44:00.150Z,79.44
2019-05-04T18:46:54.045Z,79.97
2019-05-04T18:49:24.933Z,80.97
2019-05-04T18:51:55.900Z,80.07
2019-05-04T18:54:26.676Z,79.96
2019-05-04T18:56:58.631Z,79.88
2019-05-04T18:59:30.591Z,80.36
2019-05-04T19:02:01.281Z,80.32
2019-05-04T19:04:34.094Z,80.60
2019-05-04T19:07:38.400Z,80.39
2019-05-04T19:10:10.213Z,80.73
2019-05-04T19:12:41.132Z,80.74
2019-05-04T19:15:20.888Z,81.18
2019-05-04T19:17:55.268Z,81.99
2019-05-04T19:20:27.244Z,81.78
2019-05-04T19:22:59.170Z,82.44
2019-05-04T19:25:30.809Z,83.21
2019-05-04T19:28:01.436Z,83.43
2019-05-04T19:30:32.438Z,84.40
2019-05-04T19:33:05.271Z,84.59
2019-05-04T19:35:40.365Z,84.67
2019-05-04T19:38:12.188Z,84.01
2019-05-04T19:40:44.781Z,83.78
2019-05-04T19:43:22.186Z,84.08
2019-05-04T19:46:18.164Z,84.56
2019-05-04T19:49:00.963Z,85.30
2019-05-04T19:51:34.502Z,85.12
2019-05-04T19:54:06.442Z,84.27
2019-05-04T19:56:37.382Z,85.07
2019-05-04T19:59:09.302Z,85.24
2019-05-04T20:01:41.170Z,85.30
2019-05-04T20:04:11.999Z,85.38
2019-05-04T20:07:14.917Z,85.08
2019-05-04T20:10:28.355Z,84.73
2019-05-04T20:13:04.756Z,85.07
2019-05-04T20:15:37.388Z,85.28
2019-05-04T20:18:07.952Z,85.28
2019-05-04T20:20:38.755Z,85.42
2019-05-04T20:23:10.722Z,85.98
2019-05-04T20:25:42.601Z,86.34
2019-05-04T20:28:14.892Z,86.42
2019-05-04T20:30:47.168Z,87.53
2019-05-04T20:33:26.193Z,87.31
2019-05-04T20:35:58.839Z,88.37
2019-05-04T20:38:29.418Z,88.89
2019-05-04T20:41:00.329Z,88.25
2019-05-04T20:43:31.246Z,88.17
2019-05-04T20:46:11.748Z,88.19
2019-05-04T20:48:58.146Z,88.67
2019-05-04T20:51:29.039Z,89.65
2019-05-04T20:54:04.737Z,89.31
2019-05-04T20:56:35.748Z,89.65
2019-05-04T20:59:07.701Z,89.53
2019-05-04T21:01:52.161Z,89.49
2019-05-04T21:04:37.186Z,89.30
2019-05-04T21:07:18.543Z,89.25
2019-05-04T21:09:49.657Z,88.93
2019-05-04T21:12:20.387Z,88.94
2019-05-04T21:14:52.346Z,89.01
2019-05-04T21:17:36.935Z,89.66
2019-05-04T21:20:25.802Z,90.00
2019-05-04T21:22:56.412Z,89.86
2019-05-04T21:25:28.346Z,89.82
2019-05-04T21:28:00.406Z,89.83
2019-05-04T21:30:34.223Z,89.98
2019-05-04T21:33:05.284Z,89.94
2019-05-04T21:35:38.118Z,89.77
2019-05-04T21:38:09.176Z,90.00
2019-05-04T21:40:40.155Z,89.65
2019-05-04T21:43:14.240Z,89.48
2019-05-04T21:46:04.843Z,89.82
2019-05-04T21:48:54.776Z,90.37
2019-05-04T21:51:26.988Z,90.29
2019-05-04T21:53:58.883Z,90.32
2019-05-04T21:56:29.629Z,90.41
2019-05-04T21:59:01.660Z,90.68
2019-05-04T22:01:58.772Z,91.13
2019-05-04T22:04:35.251Z,91.33
2019-05-04T22:07:07.317Z,91.14
2019-05-04T22:09:39.008Z,90.79
2019-05-04T22:12:09.838Z,90.94
2019-05-04T22:14:44.709Z,90.43
2019-05-04T22:17:18.169Z,90.99
2019-05-04T22:19:50.084Z,90.92
2019-05-04T22:22:24.219Z,90.97
2019-05-04T22:24:55.688Z,91.53
2019-05-04T22:27:27.598Z,91.35
2019-05-04T22:29:59.992Z,91.31
2019-05-04T22:32:34.513Z,91.88
2019-05-04T22:35:05.815Z,92.06
2019-05-04T22:38:04.622Z,91.96
2019-05-04T22:40:36.299Z,91.76
2019-05-04T22:43:07.468Z,92.07
2019-05-04T22:45:38.450Z,92.05
2019-05-04T22:48:10.369Z,92.12
2019-05-04T22:50:44.838Z,91.78
2019-05-04T22:53:42.129Z,91.99
2019-05-04T22:56:16.333Z,92.01
2019-05-04T22:58:54.845Z,92.28
2019-05-04T23:01:46.642Z,92.46
2019-05-04T23:04:31.655Z,92.51
2019-05-04T23:07:06.263Z,92.61
2019-05-04T23:09:38.148Z,92.89
2019-05-04T23:12:10.378Z,92.80
2019-05-04T23:14:41.296Z,93.03
2019-05-04T23:17:15.170Z,93.14
2019-05-04T23:19:47.235Z,92.96
2019-05-04T23:22:36.994Z,93.03
2019-05-04T23:25:09.272Z,92.79
2019-05-04T23:27:39.947Z,92.90
2019-05-04T23:30:14.103Z,92.91
2019-05-04T23:32:45.470Z,93.10
2019-05-04T23:35:16.519Z,93.12
2019-05-04T23:37:47.439Z,92.95
2019-05-04T23:40:19.431Z,93.16
2019-05-04T23:42:50.085Z,93.38
2019-05-04T23:45:22.048Z,93.67
2019-05-04T23:47:58.424Z,94.12
2019-05-04T23:50:29.202Z,94.17
2019-05-04T23:53:00.788Z,93.92
2019-05-04T23:55:35.479Z,93.20
2019-05-04T23:58:12.596Z,93.45
